createdAt,value
2022-08-04T00:00:01.081Z,8.00
2022-08-04T00:02:32.862Z,8.00
2022-08-04T00:05:10.415Z,7.95
2022-08-04T00:08:01.817Z,8.25
2022-08-04T00:10:29.126Z,8.32
2022-08-04T00:12:59.578Z,8.43
2022-08-04T00:15:27.132Z,8.50
2022-08-04T00:17:55.227Z,8.57
2022-08-04T00:20:22.385Z,8.80
2022-08-04T00:22:52.374Z,7.85
2022-08-04T00:25:19.820Z,8.90
2022-08-04T00:27:47.165Z,8.98
2022-08-04T00:30:14.168Z,9.32
2022-08-04T00:32:42.332Z,9.82
2022-08-04T00:35:13.200Z,9.25
2022-08-04T00:37:41.091Z,9.20
2022-08-04T00:40:29.037Z,9.55
2022-08-04T00:43:17.311Z,9.15
2022-08-04T00:46:16.131Z,9.02
2022-08-04T00:49:00.781Z,8.73
2022-08-04T00:51:43.732Z,9.23
2022-08-04T00:54:23.175Z,8.75
2022-08-04T00:57:33.802Z,8.85
2022-08-04T01:00:14.717Z,9.32
2022-08-04T01:02:51.051Z,9.20
2022-08-04T01:05:37.995Z,8.98
2022-08-04T01:08:20.423Z,9.98
2022-08-04T01:11:22.290Z,9.13
2022-08-04T01:14:10.520Z,9.35
2022-08-04T01:16:49.437Z,9.77
2022-08-04T01:19:40.350Z,9.57
2022-08-04T01:22:31.554Z,9.38
2022-08-04T01:24:58.716Z,9.85
2022-08-04T01:27:59.469Z,9.75
2022-08-04T01:30:27.631Z,9.23
2022-08-04T01:33:04.490Z,8.88
2022-08-04T01:35:48.396Z,8.57
2022-08-04T01:38:34.193Z,10.20
2022-08-04T01:41:07.928Z,9.65
2022-08-04T01:43:40.445Z,10.90
2022-08-04T01:46:11.459Z,9.60
2022-08-04T01:48:45.243Z,9.15
2022-08-04T01:51:13.070Z,9.95
2022-08-04T01:53:42.509Z,9.57
2022-08-04T01:56:12.258Z,9.73
2022-08-04T01:58:40.955Z,9.65
2022-08-04T02:01:10.383Z,10.32
2022-08-04T02:04:20.377Z,9.30
2022-08-04T02:07:04.678Z,9.50
2022-08-04T02:09:55.984Z,10.27
2022-08-04T02:12:46.131Z,10.27
2022-08-04T02:15:39.499Z,10.20
2022-08-04T02:18:47.167Z,9.77
2022-08-04T02:21:18.530Z,10.38
2022-08-04T02:23:50.839Z,11.45
2022-08-04T02:26:22.904Z,10.15
2022-08-04T02:29:08.222Z,10.25
2022-08-04T02:32:03.862Z,10.93
2022-08-04T02:34:59.452Z,9.93
2022-08-04T02:37:28.137Z,10.05
2022-08-04T02:39:59.128Z,10.85
2022-08-04T02:42:28.973Z,10.75
2022-08-04T02:44:58.981Z,10.27
2022-08-04T02:48:23.590Z,10.13
2022-08-04T02:50:28.354Z,11.63
2022-08-04T02:53:00.510Z,10.65
2022-08-04T02:55:29.698Z,10.65
2022-08-04T02:57:58.767Z,11.02
2022-08-04T03:00:26.629Z,11.38
2022-08-04T03:02:59.669Z,11.02
2022-08-04T03:05:50.079Z,11.50
2022-08-04T03:09:04.057Z,11.23
2022-08-04T03:11:55.206Z,10.52
2022-08-04T03:15:00.013Z,11.30
2022-08-04T03:17:53.121Z,11.98
2022-08-04T03:20:50.795Z,11.55
2022-08-04T03:23:36.539Z,11.57
2022-08-04T03:26:28.408Z,12.43
2022-08-04T03:29:35.817Z,11.80
2022-08-04T03:32:12.152Z,12.27
2022-08-04T03:35:00.810Z,12.88
2022-08-04T03:37:52.948Z,13.30
2022-08-04T03:40:41.740Z,11.93
2022-08-04T03:43:59.212Z,12.02
2022-08-04T03:46:25.260Z,11.73
2022-08-04T03:49:20.271Z,12.02
2022-08-04T03:52:24.650Z,11.13
2022-08-04T03:55:16.514Z,11.75
2022-08-04T03:58:11.375Z,12.10
2022-08-04T04:00:52.966Z,13.32
2022-08-04T04:03:41.359Z,11.82
2022-08-04T04:06:20.366Z,12.82
2022-08-04T04:08:49.583Z,11.57
2022-08-04T04:11:57.352Z,13.02
2022-08-04T04:14:28.198Z,12.45
2022-08-04T04:17:18.539Z,12.10
2022-08-04T04:19:48.204Z,13.38
2022-08-04T04:22:52.989Z,14.05
2022-08-04T04:25:34.748Z,15.85
2022-08-04T04:28:46.124Z,15.25
2022-08-04T04:31:25.036Z,14.98
2022-08-04T04:34:17.034Z,15.80
2022-08-04T04:37:02.047Z,16.42
2022-08-04T04:39:41.104Z,16.00
2022-08-04T04:42:48.544Z,17.83
2022-08-04T04:45:33.822Z,17.35
2022-08-04T04:48:24.424Z,17.92
2022-08-04T04:51:18.924Z,17.90
2022-08-04T04:54:03.027Z,17.77
2022-08-04T04:56:58.130Z,16.92
2022-08-04T04:59:29.154Z,16.75
2022-08-04T05:02:34.389Z,16.08
2022-08-04T05:05:33.493Z,16.60
2022-08-04T05:08:43.868Z,15.93
2022-08-04T05:11:36.146Z,19.55
2022-08-04T05:14:36.437Z,18.90
2022-08-04T05:17:15.490Z,19.55
2022-08-04T05:19:51.814Z,18.15
2022-08-04T05:22:35.423Z,19.52
2022-08-04T05:25:31.228Z,19.35
2022-08-04T05:28:06.821Z,18.33
2022-08-04T05:30:51.526Z,18.77
2022-08-04T05:33:32.753Z,17.95
2022-08-04T05:36:20.708Z,19.33
2022-08-04T05:38:59.852Z,16.98
2022-08-04T05:41:32.449Z,18.60
2022-08-04T05:44:14.992Z,16.45
2022-08-04T05:46:43.885Z,17.27
2022-08-04T05:49:12.722Z,17.45
2022-08-04T05:51:48.776Z,16.02
2022-08-04T05:54:17.777Z,15.80
2022-08-04T05:56:45.289Z,16.40
2022-08-04T05:59:13.280Z,15.27
2022-08-04T06:01:55.614Z,15.20
2022-08-04T06:04:31.314Z,14.02
2022-08-04T06:06:58.409Z,14.93
2022-08-04T06:09:25.609Z,14.77
2022-08-04T06:12:01.824Z,14.20
2022-08-04T06:14:42.011Z,15.10
2022-08-04T06:18:33.686Z,14.43
2022-08-04T06:20:18.013Z,13.90
2022-08-04T06:22:52.347Z,14.75
2022-08-04T06:25:23.998Z,13.55
2022-08-04T06:27:52.615Z,11.18
2022-08-04T06:30:20.777Z,11.02
2022-08-04T06:33:03.847Z,11.20
2022-08-04T06:35:33.833Z,10.30
2022-08-04T06:38:03.003Z,10.63
2022-08-04T06:40:33.683Z,9.90
2022-08-04T06:43:05.204Z,9.90
2022-08-04T06:45:35.806Z,9.95
2022-08-04T06:48:06.421Z,9.45
2022-08-04T06:51:30.950Z,9.27
2022-08-04T06:53:26.080Z,8.82
2022-08-04T06:55:54.746Z,7.65
2022-08-04T06:58:23.422Z,8.27
2022-08-04T07:00:51.497Z,7.47
2022-08-04T07:03:19.891Z,7.00
2022-08-04T07:05:48.352Z,7.05
2022-08-04T07:08:15.947Z,6.75
2022-08-04T07:10:45.424Z,6.15
2022-08-04T07:13:13.096Z,6.70
2022-08-04T07:15:45.175Z,6.30
2022-08-04T07:18:12.648Z,6.05
2022-08-04T07:20:47.172Z,8.23
2022-08-04T07:23:19.963Z,6.72
2022-08-04T07:25:59.818Z,5.75
2022-08-04T07:28:40.010Z,6.55
2022-08-04T07:31:31.801Z,5.60
2022-08-04T07:34:17.786Z,6.05
2022-08-04T07:36:52.771Z,5.82
2022-08-04T07:39:29.120Z,5.50
2022-08-04T07:42:02.302Z,5.20
2022-08-04T07:44:34.012Z,5.45
2022-08-04T07:47:03.562Z,5.68
2022-08-04T07:49:54.804Z,5.10
2022-08-04T07:52:18.921Z,4.97
2022-08-04T07:54:47.254Z,4.63
2022-08-04T07:57:39.815Z,4.90
2022-08-04T08:00:02.218Z,5.03
2022-08-04T08:02:39.239Z,5.25
2022-08-04T08:05:10.132Z,4.68
2022-08-04T08:07:37.290Z,5.28
2022-08-04T08:10:18.035Z,4.75
2022-08-04T08:12:51.262Z,4.45
2022-08-04T08:15:19.916Z,4.25
2022-08-04T08:17:59.063Z,4.43
2022-08-04T08:20:30.517Z,4.30
2022-08-04T08:22:59.418Z,4.50
2022-08-04T08:25:26.735Z,4.00
2022-08-04T08:27:56.110Z,4.03
2022-08-04T08:30:32.034Z,3.95
2022-08-04T08:33:07.250Z,3.42
2022-08-04T08:36:02.386Z,3.80
2022-08-04T08:39:06.885Z,3.70
2022-08-04T08:42:16.843Z,3.50
2022-08-04T08:45:11.286Z,3.53
2022-08-04T08:48:05.373Z,3.97
2022-08-04T08:50:37.276Z,3.88
2022-08-04T08:53:32.367Z,3.78
2022-08-04T08:56:08.284Z,3.33
2022-08-04T08:59:14.951Z,3.83
2022-08-04T09:01:51.987Z,3.85
2022-08-04T09:04:48.290Z,3.67
2022-08-04T09:07:27.415Z,3.38
2022-08-04T09:10:19.046Z,3.03
2022-08-04T09:13:05.121Z,3.72
2022-08-04T09:15:45.043Z,4.07
2022-08-04T09:18:22.062Z,3.53
2022-08-04T09:20:53.956Z,3.53
2022-08-04T09:24:35.441Z,3.33
2022-08-04T09:27:09.954Z,3.30
2022-08-04T09:29:43.558Z,3.15
2022-08-04T09:32:57.042Z,4.03
2022-08-04T09:35:34.759Z,3.47
2022-08-04T09:38:16.352Z,4.43
2022-08-04T09:41:20.522Z,4.25
2022-08-04T09:44:52.475Z,3.97
2022-08-04T09:47:19.267Z,3.88
2022-08-04T09:50:09.425Z,4.05
2022-08-04T09:53:06.498Z,4.20
2022-08-04T09:55:54.470Z,4.60
2022-08-04T09:58:42.599Z,4.93
2022-08-04T10:01:16.111Z,4.07
2022-08-04T10:03:50.678Z,4.22
2022-08-04T10:06:34.727Z,4.20
2022-08-04T10:09:29.931Z,3.70
2022-08-04T10:12:30.640Z,4.68
2022-08-04T10:15:11.269Z,4.15
2022-08-04T10:17:38.625Z,4.35
2022-08-04T10:21:08.885Z,4.72
2022-08-04T10:23:56.567Z,4.80
2022-08-04T10:26:45.794Z,3.97
2022-08-04T10:29:22.639Z,4.07
2022-08-04T10:32:11.583Z,4.28
2022-08-04T10:34:48.429Z,3.92
2022-08-04T10:37:59.773Z,3.63
2022-08-04T10:40:40.908Z,3.60
2022-08-04T10:43:25.890Z,3.67
2022-08-04T10:46:01.213Z,4.38
2022-08-04T10:48:41.503Z,4.10
2022-08-04T10:51:20.580Z,4.65
2022-08-04T10:53:56.111Z,3.97
2022-08-04T10:56:34.399Z,4.00
2022-08-04T10:59:11.698Z,3.80
2022-08-04T11:02:01.558Z,4.13
2022-08-04T11:04:46.868Z,3.95
2022-08-04T11:07:14.966Z,3.97
2022-08-04T11:09:45.297Z,3.70
2022-08-04T11:12:25.605Z,4.75
2022-08-04T11:15:01.769Z,3.80
2022-08-04T11:17:36.113Z,3.70
2022-08-04T11:20:39.931Z,4.13
2022-08-04T11:23:10.700Z,3.60
2022-08-04T11:25:56.283Z,3.72
2022-08-04T11:28:32.304Z,3.45
2022-08-04T11:31:04.243Z,3.70
2022-08-04T11:33:31.140Z,3.42
2022-08-04T11:36:14.746Z,4.22
2022-08-04T11:38:53.494Z,3.78
2022-08-04T11:41:33.888Z,3.95
2022-08-04T11:44:05.886Z,3.50
2022-08-04T11:46:43.126Z,3.92
2022-08-04T11:49:26.397Z,4.18
2022-08-04T11:51:55.956Z,3.92
2022-08-04T11:54:23.032Z,3.60
2022-08-04T11:56:50.995Z,3.72
2022-08-04T11:59:20.633Z,3.50
2022-08-04T12:02:23.400Z,3.50
2022-08-04T12:04:57.422Z,4.13
2022-08-04T12:07:45.555Z,3.90
2022-08-04T12:10:41.750Z,3.65
2022-08-04T12:13:16.017Z,3.63
2022-08-04T12:15:57.413Z,4.13
2022-08-04T12:18:42.981Z,3.30
2022-08-04T12:21:33.829Z,3.85
2022-08-04T12:24:08.589Z,3.47
2022-08-04T12:26:42.814Z,3.85
2022-08-04T12:29:15.153Z,4.28
2022-08-04T12:31:48.429Z,3.88
2022-08-04T12:34:32.217Z,3.92
2022-08-04T12:37:05.234Z,3.92
2022-08-04T12:39:36.524Z,3.88
2022-08-04T12:42:59.286Z,3.53
2022-08-04T12:45:27.496Z,3.53
2022-08-04T12:47:59.123Z,4.20
2022-08-04T12:50:26.642Z,3.45
2022-08-04T12:53:02.306Z,3.45
2022-08-04T12:55:33.567Z,4.20
2022-08-04T12:58:02.866Z,3.80
2022-08-04T13:00:41.288Z,3.35
2022-08-04T13:03:14.683Z,4.18
2022-08-04T13:05:43.039Z,3.83
2022-08-04T13:08:15.561Z,3.60
2022-08-04T13:10:47.076Z,3.22
2022-08-04T13:13:18.575Z,3.53
2022-08-04T13:16:08.635Z,3.40
2022-08-04T13:18:49.037Z,4.22
2022-08-04T13:21:23.203Z,4.05
2022-08-04T13:24:22.687Z,3.25
2022-08-04T13:27:05.046Z,3.80
2022-08-04T13:29:59.201Z,3.50
2022-08-04T13:32:31.646Z,3.40
2022-08-04T13:35:02.284Z,4.40
2022-08-04T13:37:39.356Z,4.13
2022-08-04T13:40:11.439Z,4.00
2022-08-04T13:42:40.370Z,3.95
2022-08-04T13:45:09.512Z,3.47
2022-08-04T13:47:39.426Z,3.65
2022-08-04T13:50:12.959Z,4.20
2022-08-04T13:52:42.078Z,3.88
2022-08-04T13:55:19.950Z,4.22
2022-08-04T13:57:53.049Z,4.30
2022-08-04T14:00:29.026Z,4.65
2022-08-04T14:03:23.916Z,4.40
2022-08-04T14:06:45.606Z,4.65
2022-08-04T14:09:19.945Z,4.78
2022-08-04T14:12:07.129Z,5.15
2022-08-04T14:14:48.346Z,4.70
2022-08-04T14:17:24.305Z,5.00
2022-08-04T14:20:02.480Z,4.85
2022-08-04T14:22:34.643Z,5.05
2022-08-04T14:25:15.382Z,5.53
2022-08-04T14:27:47.881Z,4.43
2022-08-04T14:30:25.900Z,4.97
2022-08-04T14:34:01.724Z,4.80
2022-08-04T14:36:14.690Z,4.95
2022-08-04T14:39:00.265Z,5.00
2022-08-04T14:41:32.594Z,5.78
2022-08-04T14:44:02.327Z,6.40
2022-08-04T14:46:36.930Z,5.50
2022-08-04T14:49:10.373Z,5.68
2022-08-04T14:52:05.510Z,5.55
2022-08-04T14:54:35.459Z,5.38
2022-08-04T14:57:08.152Z,7.70
2022-08-04T14:59:59.444Z,5.20
2022-08-04T15:02:30.598Z,5.30
2022-08-04T15:04:59.220Z,5.45
2022-08-04T15:07:46.862Z,5.55
2022-08-04T15:10:13.979Z,5.35
2022-08-04T15:12:41.080Z,5.28
2022-08-04T15:15:34.176Z,5.38
2022-08-04T15:17:56.028Z,5.13
2022-08-04T15:20:23.353Z,5.35
2022-08-04T15:22:50.623Z,5.70
2022-08-04T15:25:18.093Z,5.72
2022-08-04T15:27:48.755Z,6.00
2022-08-04T15:30:17.251Z,5.25
2022-08-04T15:32:56.766Z,6.13
2022-08-04T15:35:38.725Z,4.95
2022-08-04T15:38:11.625Z,5.30
2022-08-04T15:40:52.433Z,4.80
2022-08-04T15:43:46.315Z,5.28
2022-08-04T15:46:44.273Z,5.15
2022-08-04T15:49:25.212Z,5.30
2022-08-04T15:52:11.851Z,4.85
2022-08-04T15:54:42.550Z,7.95
2022-08-04T15:58:08.122Z,5.22
2022-08-04T16:00:50.859Z,5.18
2022-08-04T16:03:58.180Z,5.10
2022-08-04T16:06:20.557Z,5.18
2022-08-04T16:08:57.364Z,5.72
2022-08-04T16:11:30.832Z,5.47
2022-08-04T16:14:00.025Z,5.60
2022-08-04T16:16:36.747Z,5.70
2022-08-04T16:19:16.701Z,5.10
2022-08-04T16:21:54.790Z,6.60
2022-08-04T16:24:29.736Z,5.60
2022-08-04T16:26:58.645Z,6.13
2022-08-04T16:29:40.926Z,6.20
2022-08-04T16:32:11.080Z,6.10
2022-08-04T16:34:49.579Z,6.22
2022-08-04T16:37:29.907Z,6.40
2022-08-04T16:40:38.842Z,6.60
2022-08-04T16:43:29.704Z,6.32
2022-08-04T16:46:04.050Z,6.13
2022-08-04T16:48:33.136Z,6.55
2022-08-04T16:51:09.799Z,6.53
2022-08-04T16:53:52.115Z,6.82
2022-08-04T16:56:35.539Z,6.63
2022-08-04T16:59:10.412Z,7.78
2022-08-04T17:01:44.789Z,6.88
2022-08-04T17:04:12.084Z,6.40
2022-08-04T17:06:44.273Z,6.35
2022-08-04T17:09:18.778Z,6.80
2022-08-04T17:11:47.600Z,6.47
2022-08-04T17:14:22.853Z,6.97
2022-08-04T17:16:50.288Z,7.15
2022-08-04T17:19:19.889Z,6.75
2022-08-04T17:22:02.340Z,6.75
2022-08-04T17:24:30.209Z,7.25
2022-08-04T17:26:58.980Z,7.30
2022-08-04T17:29:44.137Z,8.23
2022-08-04T17:32:17.138Z,7.57
2022-08-04T17:34:49.736Z,7.97
2022-08-04T17:37:38.236Z,8.32
2022-08-04T17:40:18.635Z,7.85
2022-08-04T17:44:01.389Z,8.43
2022-08-04T17:46:28.103Z,8.52
2022-08-04T17:48:59.195Z,8.10
2022-08-04T17:52:05.355Z,8.40
2022-08-04T17:57:26.373Z,8.30
2022-08-04T17:59:58.779Z,8.55
2022-08-04T18:02:32.954Z,9.10
2022-08-04T18:05:07.435Z,9.70
2022-08-04T18:08:40.153Z,9.13
2022-08-04T18:10:51.519Z,8.95
2022-08-04T18:13:25.808Z,9.10
2022-08-04T18:16:14.570Z,10.02
2022-08-04T18:19:09.342Z,10.57
2022-08-04T18:21:45.609Z,12.50
2022-08-04T18:24:34.788Z,10.45
2022-08-04T18:27:10.890Z,11.07
2022-08-04T18:30:15.128Z,11.85
2022-08-04T18:32:33.429Z,12.35
2022-08-04T18:35:05.448Z,11.98
2022-08-04T18:38:05.833Z,11.30
2022-08-04T18:40:26.690Z,9.80
2022-08-04T18:43:00.082Z,11.23
2022-08-04T18:45:34.094Z,10.25
2022-08-04T18:48:04.222Z,11.95
2022-08-04T18:51:11.206Z,12.10
2022-08-04T18:53:34.866Z,12.50
2022-08-04T18:56:19.831Z,12.38
2022-08-04T18:58:53.819Z,11.93
2022-08-04T19:01:21.234Z,11.70
2022-08-04T19:03:58.092Z,12.40
2022-08-04T19:06:25.991Z,11.65
2022-08-04T19:08:54.630Z,12.95
2022-08-04T19:11:52.754Z,11.90
2022-08-04T19:14:13.216Z,11.63
2022-08-04T19:16:45.871Z,11.20
2022-08-04T19:19:15.566Z,10.40
2022-08-04T19:22:00.429Z,10.85
2022-08-04T19:24:35.052Z,10.43
2022-08-04T19:27:08.256Z,10.50
2022-08-04T19:29:40.961Z,11.15
2022-08-04T19:32:14.126Z,10.38
2022-08-04T19:34:46.152Z,8.43
2022-08-04T19:37:56.855Z,8.55
2022-08-04T19:40:09.562Z,8.13
2022-08-04T19:42:37.668Z,8.27
2022-08-04T19:45:05.531Z,8.15
2022-08-04T19:48:16.371Z,7.88
2022-08-04T19:50:20.078Z,7.50
2022-08-04T19:52:52.189Z,7.85
2022-08-04T19:55:22.358Z,6.35
2022-08-04T19:57:52.495Z,6.88
2022-08-04T20:05:57.495Z,5.75
2022-08-04T20:08:28.012Z,5.82
2022-08-04T20:10:55.297Z,5.68
2022-08-04T20:13:25.501Z,5.50
2022-08-04T20:15:59.149Z,5.75
2022-08-04T20:18:35.684Z,5.80
2022-08-04T20:21:19.474Z,5.10
2022-08-04T20:23:52.559Z,4.80
2022-08-04T20:26:20.490Z,5.15
2022-08-04T20:28:52.003Z,4.90
2022-08-04T20:31:21.743Z,5.28
2022-08-04T20:33:53.514Z,4.95
2022-08-04T20:36:22.815Z,5.28
2022-08-04T20:38:53.019Z,5.13
2022-08-04T20:41:23.425Z,4.65
2022-08-04T20:43:50.828Z,4.82
2022-08-04T20:46:29.235Z,5.03
2022-08-04T20:48:57.983Z,5.00
2022-08-04T20:51:31.873Z,4.85
2022-08-04T20:54:02.326Z,4.85
2022-08-04T20:56:31.667Z,4.80
2022-08-04T20:59:07.964Z,4.88
2022-08-04T21:01:35.355Z,4.93
2022-08-04T21:04:28.064Z,4.82
2022-08-04T21:06:58.037Z,4.55
2022-08-04T21:09:38.149Z,5.13
2022-08-04T21:12:26.918Z,4.93
2022-08-04T21:15:00.050Z,4.93
2022-08-04T21:17:58.113Z,5.00
2022-08-04T21:20:14.660Z,4.43
2022-08-04T21:22:55.326Z,6.70
2022-08-04T21:25:26.757Z,4.63
2022-08-04T21:27:53.726Z,4.68
2022-08-04T21:33:07.977Z,5.25
2022-08-04T21:35:39.091Z,5.80
2022-08-04T21:38:16.136Z,5.15
2022-08-04T21:40:53.520Z,5.05
2022-08-04T21:43:23.779Z,4.15
2022-08-04T21:45:55.766Z,4.43
2022-08-04T21:48:27.580Z,4.53
2022-08-04T21:50:55.176Z,4.43
2022-08-04T21:53:23.034Z,4.47
2022-08-04T21:56:04.493Z,4.50
2022-08-04T21:58:38.170Z,4.25
2022-08-04T22:01:13.303Z,4.78
2022-08-04T22:03:53.967Z,4.20
2022-08-04T22:06:28.468Z,4.35
2022-08-04T22:08:57.130Z,4.13
2022-08-04T22:11:48.817Z,4.55
2022-08-04T22:14:28.887Z,4.53
2022-08-04T22:16:56.717Z,4.60
2022-08-04T22:19:39.764Z,4.38
2022-08-04T22:22:12.668Z,4.50
2022-08-04T22:24:41.091Z,4.05
2022-08-04T22:27:12.356Z,4.65
2022-08-04T22:29:39.491Z,4.80
2022-08-04T22:32:12.275Z,4.05
2022-08-04T22:34:45.572Z,4.45
2022-08-04T22:37:28.521Z,4.50
2022-08-04T22:40:05.047Z,4.40
2022-08-04T22:42:32.944Z,4.55
2022-08-04T22:45:01.508Z,4.28
2022-08-04T22:47:29.317Z,4.30
2022-08-04T22:50:21.700Z,4.07
2022-08-04T22:52:51.589Z,4.65
2022-08-04T22:55:23.595Z,4.38
2022-08-04T22:58:04.924Z,4.38
2022-08-04T23:00:33.107Z,3.75
2022-08-04T23:03:00.098Z,4.07
2022-08-04T23:05:35.530Z,4.28
2022-08-04T23:08:05.251Z,4.45
2022-08-04T23:10:33.005Z,4.28
2022-08-04T23:13:03.972Z,4.80
2022-08-04T23:15:33.551Z,4.30
2022-08-04T23:18:01.256Z,4.43
2022-08-04T23:20:32.958Z,4.43
2022-08-04T23:23:14.884Z,4.32
2022-08-04T23:26:07.682Z,4.43
2022-08-04T23:28:32.822Z,5.03
2022-08-04T23:30:59.707Z,4.13
2022-08-04T23:33:50.810Z,4.10
2022-08-04T23:36:16.719Z,4.43
2022-08-04T23:38:43.654Z,4.65
2022-08-04T23:41:15.175Z,4.63
2022-08-04T23:43:55.473Z,4.00
2022-08-04T23:46:23.666Z,4.25
2022-08-04T23:48:52.117Z,4.75
2022-08-04T23:51:20.035Z,4.47
2022-08-04T23:54:03.637Z,4.20
2022-08-04T23:56:33.136Z,5.00
2022-08-04T23:59:03.622Z,4.38
